Time;durP1;ratioP1;P1;durP2;ratioP2;P2;SDS_P1;SDS_P2;PMS_P1;PMS_P2;Temp;Humidity;BMP_temperature;BMP_pressure;BME280_temperature;BME280_humidity;BME280_pressure;Samples;Min_cycle;Max_cycle;Signal;HPM_P1;HPM_P2
2021/04/11 00:01:03;;;;;;;14.88;10.00;;;8.50;99.90;;;;;;5108813;28;20070;-48
2021/04/11 00:04:07;;;;;;;17.20;11.70;;;8.40;99.90;;;;;;5108803;28;20160;-48
2021/04/11 00:07:11;;;;;;;20.75;13.27;;;8.40;99.90;;;;;;5109074;28;20054;-47
2021/04/11 00:10:22;;;;;;;24.02;13.07;;;8.40;99.90;;;;;;5108839;28;20038;-48
2021/04/11 00:13:30;;;;;;;21.55;13.02;;;8.40;99.90;;;;;;5097473;28;20401;-48
2021/04/11 00:16:34;;;;;;;25.25;13.35;;;8.40;99.90;;;;;;5108806;28;20026;-47
2021/04/11 00:19:38;;;;;;;17.17;11.82;;;8.40;99.90;;;;;;5112643;28;20034;-50
2021/04/11 00:22:45;;;;;;;25.30;13.93;;;8.40;99.90;;;;;;5112235;28;20039;-48
2021/04/11 00:25:49;;;;;;;24.13;13.35;;;8.40;99.90;;;;;;5112354;28;20057;-46
2021/04/11 00:28:53;;;;;;;24.92;13.75;;;8.40;99.90;;;;;;5112861;28;20050;-50
2021/04/11 00:31:57;;;;;;;20.40;12.82;;;8.40;99.90;;;;;;5112103;28;20520;-47
2021/04/11 00:35:02;;;;;;;21.85;13.63;;;8.40;99.90;;;;;;5112492;28;20066;-50
2021/04/11 00:38:06;;;;;;;15.73;10.73;;;8.40;99.90;;;;;;5111963;28;20117;-47
2021/04/11 00:41:23;;;;;;;14.48;10.68;;;8.50;99.90;;;;;;5111688;28;20062;-47
2021/04/11 00:44:28;;;;;;;15.23;10.82;;;8.60;99.90;;;;;;5106546;28;20046;-47
2021/04/11 00:47:32;;;;;;;21.00;11.27;;;8.50;99.90;;;;;;5099573;28;20054;-49
2021/04/11 00:50:37;;;;;;;19.50;12.40;;;8.40;99.90;;;;;;5112443;28;20047;-47
2021/04/11 00:53:43;;;;;;;18.15;10.90;;;8.50;99.90;;;;;;5112445;28;20043;-47
2021/04/11 00:56:48;;;;;;;17.38;11.77;;;8.50;99.90;;;;;;5099400;28;20534;-47
2021/04/11 00:59:53;;;;;;;23.30;14.48;;;8.40;99.90;;;;;;5090866;28;20046;-46
2021/04/11 01:02:58;;;;;;;23.88;13.20;;;8.30;99.90;;;;;;5088480;28;20043;-48
2021/04/11 01:06:08;;;;;;;23.83;13.77;;;8.20;99.90;;;;;;5099612;28;20043;-46
2021/04/11 01:09:18;;;;;;;24.48;10.48;;;8.20;99.90;;;;;;5112126;28;20066;-47
2021/04/11 01:12:24;;;;;;;11.88;6.70;;;8.30;99.90;;;;;;5098742;28;20035;-46
2021/04/11 01:15:32;;;;;;;11.05;5.68;;;8.40;99.90;;;;;;5099266;28;20054;-46
2021/04/11 01:18:39;;;;;;;15.18;6.22;;;8.60;99.90;;;;;;5099741;28;20494;-46
2021/04/11 01:22:18;;;;;;;11.32;4.97;;;8.60;99.90;;;;;;5078860;28;20043;-46
2021/04/11 01:25:31;;;;;;;13.95;9.13;;;8.70;99.90;;;;;;5078090;28;20054;-48
2021/04/11 01:28:47;;;;;;;18.60;10.20;;;8.60;99.90;;;;;;5098798;28;20054;-47
2021/04/11 01:31:53;;;;;;;19.13;11.85;;;8.40;99.90;;;;;;5082648;28;20054;-47
2021/04/11 01:34:58;;;;;;;13.65;5.07;;;8.40;99.90;;;;;;5104626;28;20046;-46
2021/04/11 01:38:04;;;;;;;12.10;4.00;;;8.70;99.90;;;;;;5096752;28;20058;-47
2021/04/11 01:41:20;;;;;;;11.48;3.90;;;9.10;99.90;;;;;;5110896;28;20046;-47
2021/04/11 01:44:31;;;;;;;14.35;5.35;;;9.20;99.90;;;;;;5111252;28;20047;-50
2021/04/11 01:47:35;;;;;;;11.60;5.60;;;9.00;99.90;;;;;;5111262;28;20440;-46
2021/04/11 01:50:41;;;;;;;13.77;6.57;;;8.70;99.90;;;;;;5098751;28;20043;-47
2021/04/11 01:53:47;;;;;;;20.63;6.78;;;8.60;99.90;;;;;;5098842;28;20492;-46
2021/04/11 01:56:51;;;;;;;18.17;7.10;;;8.60;99.90;;;;;;5086128;28;20047;-47
2021/04/11 02:00:20;;;;;;;12.85;5.10;;;8.60;99.90;;;;;;5082299;27;20030;-46
2021/04/11 02:03:30;;;;;;;7.65;4.72;;;8.70;99.90;;;;;;5077271;28;20043;-46
2021/04/11 02:06:40;;;;;;;8.40;4.45;;;8.80;99.90;;;;;;5084636;28;20040;-46
2021/04/11 02:09:51;;;;;;;9.82;3.78;;;8.90;99.90;;;;;;5097118;28;20375;-48
2021/04/11 02:13:10;;;;;;;15.25;4.35;;;8.90;99.90;;;;;;5098233;28;20376;-47
2021/04/11 02:16:27;;;;;;;13.10;5.20;;;9.10;99.90;;;;;;5111046;28;20047;-48
2021/04/11 02:19:33;;;;;;;10.70;5.25;;;9.00;99.90;;;;;;5098757;28;20046;-47
2021/04/11 02:22:39;;;;;;;10.32;5.20;;;8.80;99.90;;;;;;5097748;28;20504;-48
2021/04/11 02:25:48;;;;;;;8.88;3.95;;;8.70;99.90;;;;;;5085499;28;20054;-47
2021/04/11 02:28:53;;;;;;;9.48;4.50;;;8.80;99.90;;;;;;5098227;28;20039;-48
2021/04/11 02:31:59;;;;;;;9.20;4.18;;;8.80;99.90;;;;;;5097751;28;20345;-49
2021/04/11 02:35:06;;;;;;;10.77;4.18;;;8.80;99.90;;;;;;5110442;28;20036;-47
2021/04/11 02:38:12;;;;;;;10.10;3.80;;;8.80;99.90;;;;;;5110051;28;20054;-54
2021/04/11 02:41:21;;;;;;;12.23;3.88;;;8.90;99.90;;;;;;5096753;28;20059;-49
2021/04/11 02:44:26;;;;;;;7.22;3.40;;;8.80;99.90;;;;;;5103517;28;20164;-48
2021/04/11 02:47:31;;;;;;;11.05;4.10;;;8.80;99.90;;;;;;5096973;28;20390;-48
2021/04/11 02:50:42;;;;;;;11.68;4.43;;;8.90;99.90;;;;;;5097394;28;20047;-51
2021/04/11 02:53:49;;;;;;;8.13;5.03;;;8.80;99.90;;;;;;5096974;28;20046;-48
2021/04/11 02:57:07;;;;;;;6.65;3.40;;;8.70;99.90;;;;;;5090519;28;20043;-48
2021/04/11 03:00:20;;;;;;;8.70;3.20;;;8.90;99.90;;;;;;5100526;28;20046;-47
2021/04/11 03:03:27;;;;;;;7.95;3.45;;;9.10;99.90;;;;;;5097078;28;20040;-48
2021/04/11 03:06:38;;;;;;;7.47;3.03;;;9.00;99.90;;;;;;5072427;28;20387;-48
2021/04/11 03:09:47;;;;;;;9.88;3.38;;;8.90;99.90;;;;;;5109811;28;20031;-47
2021/04/11 03:13:01;;;;;;;7.80;3.13;;;8.90;99.90;;;;;;5096666;28;20327;-47
2021/04/11 03:16:06;;;;;;;10.23;3.55;;;9.00;99.90;;;;;;5096599;28;20550;-46
2021/04/11 03:19:16;;;;;;;6.75;3.22;;;9.00;99.90;;;;;;5096987;28;20419;-48
2021/04/11 03:22:21;;;;;;;6.72;3.00;;;9.10;99.90;;;;;;5096337;28;20035;-47
2021/04/11 03:25:27;;;;;;;7.22;3.45;;;9.10;99.90;;;;;;5084534;28;20485;-47
2021/04/11 03:28:49;;;;;;;16.60;3.90;;;9.00;99.90;;;;;;5096819;28;20039;-48
2021/04/11 03:32:06;;;;;;;9.52;4.45;;;8.90;99.90;;;;;;5096655;28;20097;-49
2021/04/11 03:35:19;;;;;;;6.68;4.28;;;8.80;99.90;;;;;;5095257;28;20027;-47
2021/04/11 03:38:29;;;;;;;11.98;4.30;;;8.90;99.90;;;;;;5096719;28;20032;-49
2021/04/11 03:41:37;;;;;;;8.95;3.85;;;8.90;99.90;;;;;;5096797;28;20547;-47
2021/04/11 03:44:46;;;;;;;10.45;5.38;;;8.90;99.90;;;;;;5096229;28;20043;-47
2021/04/11 03:48:08;;;;;;;11.75;5.20;;;8.90;99.90;;;;;;5083501;28;20039;-48
2021/04/11 03:51:22;;;;;;;13.57;6.07;;;8.80;99.90;;;;;;5084246;28;20039;-49
2021/04/11 03:54:33;;;;;;;11.05;4.95;;;8.80;99.90;;;;;;5101032;28;20042;-48
2021/04/11 03:57:53;;;;;;;12.00;4.88;;;8.90;99.90;;;;;;5100432;28;20429;-48
2021/04/11 04:01:19;;;;;;;10.07;4.65;;;8.90;99.90;;;;;;5100447;28;20042;-49
2021/04/11 04:04:25;;;;;;;11.35;5.88;;;8.90;99.90;;;;;;5112863;28;20050;-48
2021/04/11 04:07:58;;;;;;;10.13;4.65;;;8.90;99.90;;;;;;5100273;28;20513;-48
2021/04/11 04:11:24;;;;;;;17.30;5.53;;;8.90;99.90;;;;;;5112784;28;20042;-52
2021/04/11 04:14:56;;;;;;;11.80;5.75;;;9.10;99.90;;;;;;5100143;28;20063;-50
2021/04/11 04:18:36;;;;;;;8.30;5.10;;;9.00;99.90;;;;;;5100230;28;20042;-49
2021/04/11 04:21:55;;;;;;;10.60;4.85;;;9.00;99.90;;;;;;5112888;28;20027;-48
2021/04/11 04:25:16;;;;;;;13.68;5.82;;;9.10;99.90;;;;;;5112765;28;20548;-49
2021/04/11 04:28:34;;;;;;;15.02;6.57;;;9.00;99.90;;;;;;5099913;28;20031;-49
2021/04/11 04:31:51;;;;;;;12.40;6.93;;;9.00;99.90;;;;;;5099793;28;20614;-48
2021/04/11 04:35:10;;;;;;;9.63;6.63;;;8.80;99.90;;;;;;5099515;28;20042;-48
2021/04/11 04:38:48;;;;;;;11.40;6.13;;;8.70;99.90;;;;;;5108904;28;20509;-50
2021/04/11 04:42:09;;;;;;;8.30;4.63;;;8.80;99.90;;;;;;5103959;27;20042;-48
2021/04/11 04:45:32;;;;;;;15.95;6.43;;;9.00;99.90;;;;;;5095580;27;20382;-48
2021/04/11 04:48:56;;;;;;;5.93;3.90;;;9.20;99.90;;;;;;5132901;27;20054;-47
2021/04/11 04:52:12;;;;;;;14.68;5.20;;;9.40;99.90;;;;;;5119909;27;20031;-47
2021/04/11 04:55:25;;;;;;;11.30;3.80;;;9.40;99.90;;;;;;5132984;27;20042;-47
2021/04/11 04:58:41;;;;;;;14.43;4.47;;;9.60;99.90;;;;;;5120480;27;20076;-47
2021/04/11 05:02:05;;;;;;;9.93;4.90;;;9.60;99.90;;;;;;5120578;27;20042;-47
2021/04/11 05:05:19;;;;;;;10.43;3.80;;;9.60;99.90;;;;;;5132181;27;20039;-53
2021/04/11 05:08:48;;;;;;;7.68;4.00;;;9.80;99.90;;;;;;5120025;27;20057;-47
2021/04/11 05:12:38;;;;;;;7.00;3.33;;;9.80;99.90;;;;;;5110790;27;20023;-47
2021/04/11 05:15:48;;;;;;;9.85;3.65;;;9.80;99.90;;;;;;5027396;28;20037;-47
2021/04/11 05:19:09;;;;;;;10.75;3.97;;;9.60;99.90;;;;;;5045367;27;20029;-47
2021/04/11 05:22:50;;;;;;;12.63;3.47;;;9.60;99.90;;;;;;5110337;27;20046;-46
2021/04/11 05:26:17;;;;;;;8.15;3.53;;;9.80;99.90;;;;;;5119110;27;20046;-49
2021/04/11 05:29:27;;;;;;;7.65;2.95;;;9.90;99.90;;;;;;5132558;27;20035;-47
2021/04/11 05:32:32;;;;;;;7.97;3.42;;;10.10;99.90;;;;;;5123028;27;20036;-50
2021/04/11 05:35:37;;;;;;;8.68;3.80;;;10.00;99.90;;;;;;5130454;27;20097;-54
2021/04/11 05:39:18;;;;;;;7.30;3.00;;;10.10;99.90;;;;;;5131673;27;20034;-47
2021/04/11 05:42:35;;;;;;;8.88;3.50;;;10.10;99.90;;;;;;5131271;27;20038;-47
2021/04/11 05:46:12;;;;;;;6.03;3.28;;;10.10;99.90;;;;;;5123953;27;20051;-47
2021/04/11 05:49:35;;;;;;;4.75;3.15;;;10.10;99.90;;;;;;5108283;27;20038;-48
2021/04/11 05:53:00;;;;;;;9.50;3.65;;;10.10;99.90;;;;;;5109755;27;20043;-47
2021/04/11 05:56:10;;;;;;;13.32;4.00;;;10.10;99.90;;;;;;5102837;27;20513;-47
2021/04/11 05:59:29;;;;;;;10.88;3.80;;;10.00;99.90;;;;;;5093785;28;20501;-47
2021/04/11 06:02:37;;;;;;;7.35;3.45;;;9.80;99.90;;;;;;5107257;27;20397;-46
2021/04/11 06:05:50;;;;;;;14.52;3.90;;;10.00;99.90;;;;;;5109438;27;20035;-46
2021/04/11 06:08:59;;;;;;;7.60;3.15;;;10.00;99.90;;;;;;5102169;27;20031;-47
2021/04/11 06:11:57;;;;;;;12.02;3.33;;;10.10;99.90;;;;;;5084364;27;20356;-45
2021/04/11 06:15:16;;;;;;;13.20;3.88;;;10.10;99.90;;;;;;5088349;28;20036;-50
2021/04/11 06:18:20;;;;;;;8.93;3.58;;;10.00;99.90;;;;;;5082075;28;20040;-46
2021/04/11 06:21:31;;;;;;;9.40;4.03;;;10.00;99.90;;;;;;5079975;28;20040;-48
2021/04/11 06:24:54;;;;;;;7.13;3.17;;;10.00;99.90;;;;;;5081829;28;20032;-46
2021/04/11 06:28:09;;;;;;;7.55;3.25;;;10.20;99.90;;;;;;5086259;28;20037;-46
2021/04/11 06:31:24;;;;;;;6.18;3.33;;;10.40;99.90;;;;;;5086128;28;20395;-46
2021/04/11 06:35:01;;;;;;;8.27;3.03;;;10.40;99.90;;;;;;5072058;28;20032;-47
2021/04/11 06:38:09;;;;;;;5.32;2.10;;;10.50;99.90;;;;;;5067470;28;20029;-46
2021/04/11 06:41:29;;;;;;;6.10;2.80;;;10.50;99.90;;;;;;5072005;28;20040;-50
2021/04/11 06:45:01;;;;;;;7.00;3.25;;;10.40;99.90;;;;;;5074470;28;20410;-51
2021/04/11 06:48:56;;;;;;;5.80;3.20;;;10.30;99.90;;;;;;5079859;28;20044;-46
2021/04/11 06:52:15;;;;;;;8.52;3.72;;;10.30;99.90;;;;;;5063025;28;20044;-53
2021/04/11 06:55:24;;;;;;;12.80;4.53;;;10.50;99.90;;;;;;5079823;28;20024;-51
2021/04/11 06:58:41;;;;;;;10.05;3.67;;;10.40;99.90;;;;;;5085069;28;20059;-52
2021/04/11 07:02:02;;;;;;;4.72;2.72;;;10.40;99.90;;;;;;5074172;28;20419;-47
2021/04/11 07:05:22;;;;;;;10.40;3.22;;;10.60;99.90;;;;;;5080592;28;20056;-50
2021/04/11 07:09:01;;;;;;;5.10;2.97;;;10.70;99.90;;;;;;5068765;28;20069;-48
2021/04/11 07:12:24;;;;;;;9.73;3.10;;;10.80;99.90;;;;;;5073332;28;20494;-50
2021/04/11 07:15:52;;;;;;;8.52;2.53;;;10.90;99.90;;;;;;5083500;28;20047;-51
2021/04/11 07:19:18;;;;;;;4.93;3.28;;;10.90;99.90;;;;;;5080181;28;20028;-46
2021/04/11 07:22:43;;;;;;;10.02;2.80;;;11.00;99.90;;;;;;5056656;28;20033;-50
2021/04/11 07:26:13;;;;;;;6.50;2.65;;;11.00;99.90;;;;;;5062032;28;20043;-55
2021/04/11 07:29:46;;;;;;;6.38;2.65;;;11.10;99.90;;;;;;5067562;28;20028;-47
2021/04/11 07:33:08;;;;;;;6.20;2.80;;;11.10;99.90;;;;;;5066219;28;20039;-51
2021/04/11 07:36:31;;;;;;;8.70;2.65;;;11.10;99.90;;;;;;5077514;28;20032;-49
2021/04/11 07:40:07;;;;;;;9.20;3.08;;;11.10;99.90;;;;;;5064881;28;20029;-45
2021/04/11 07:43:37;;;;;;;7.93;2.45;;;11.20;99.90;;;;;;5068228;28;20025;-50
2021/04/11 07:46:53;;;;;;;6.68;2.55;;;11.20;99.90;;;;;;5070925;28;20046;-50
2021/04/11 07:50:09;;;;;;;3.22;2.38;;;11.20;99.90;;;;;;5066441;28;20527;-48
2021/04/11 07:53:20;;;;;;;6.68;2.55;;;11.20;99.90;;;;;;5058982;28;20033;-51
2021/04/11 07:56:49;;;;;;;5.85;2.22;;;11.20;99.90;;;;;;5054249;28;20025;-54
2021/04/11 08:00:12;;;;;;;3.38;2.10;;;11.30;99.90;;;;;;5064054;28;20388;-48
2021/04/11 08:03:42;;;;;;;8.88;3.85;;;11.30;99.90;;;;;;5063092;28;20036;-52
2021/04/11 08:06:58;;;;;;;5.35;2.28;;;11.40;99.90;;;;;;5058818;28;20049;-50
2021/04/11 08:10:15;;;;;;;5.97;1.75;;;11.40;99.90;;;;;;5056897;28;20067;-48
2021/04/11 08:13:22;;;;;;;5.53;1.55;;;11.50;99.90;;;;;;5056288;28;20491;-47
2021/04/11 08:16:56;;;;;;;8.00;2.00;;;11.70;99.90;;;;;;5066144;28;20424;-46
2021/04/11 08:20:23;;;;;;;7.93;2.20;;;11.60;99.90;;;;;;5065863;28;20044;-47
2021/04/11 08:24:01;;;;;;;5.28;1.73;;;11.70;99.90;;;;;;5023737;28;20044;-48
2021/04/11 08:27:44;;;;;;;4.93;1.83;;;11.70;99.90;;;;;;5047837;28;20045;-50
2021/04/11 08:31:12;;;;;;;6.95;1.73;;;11.80;99.90;;;;;;5058217;28;20052;-48
2021/04/11 08:34:41;;;;;;;3.20;1.85;;;11.80;99.90;;;;;;5070308;28;20040;-49
2021/04/11 08:37:57;;;;;;;4.90;1.98;;;11.80;99.90;;;;;;5076008;28;20057;-48
2021/04/11 08:41:35;;;;;;;8.93;1.83;;;11.80;99.90;;;;;;5064871;28;20037;-50
2021/04/11 08:44:57;;;;;;;3.03;1.77;;;11.80;99.90;;;;;;5068227;28;20049;-49
2021/04/11 08:48:22;;;;;;;4.72;2.42;;;11.90;99.90;;;;;;5068591;28;20049;-47
2021/04/11 08:51:37;;;;;;;5.90;1.50;;;11.90;99.90;;;;;;5056086;28;20036;-51
2021/04/11 08:54:56;;;;;;;3.75;2.00;;;11.80;99.90;;;;;;5072596;28;20061;-47
2021/04/11 08:58:21;;;;;;;3.17;1.80;;;11.90;99.90;;;;;;5063872;28;20032;-47
2021/04/11 09:01:40;;;;;;;4.10;1.42;;;11.90;99.90;;;;;;5061336;28;20571;-50
2021/04/11 09:04:55;;;;;;;2.97;1.80;;;12.10;99.90;;;;;;5061065;28;20059;-55
2021/04/11 09:08:14;;;;;;;4.10;1.88;;;12.20;99.90;;;;;;5065147;28;20048;-50
2021/04/11 09:11:28;;;;;;;4.05;1.50;;;12.40;99.90;;;;;;5065472;28;20032;-49
2021/04/11 09:14:41;;;;;;;3.10;1.55;;;12.50;99.90;;;;;;5063857;28;20064;-47
2021/04/11 09:17:59;;;;;;;3.22;1.70;;;12.60;99.90;;;;;;5063673;28;20059;-51
2021/04/11 09:21:14;;;;;;;5.35;1.50;;;12.50;99.90;;;;;;5063170;28;20507;-49
2021/04/11 09:24:38;;;;;;;3.55;1.92;;;12.50;99.90;;;;;;5058490;28;20037;-48
2021/04/11 09:28:04;;;;;;;2.65;1.85;;;12.40;99.90;;;;;;5064398;28;20036;-47
2021/04/11 09:31:21;;;;;;;2.92;1.50;;;12.20;99.90;;;;;;5063992;28;20055;-49
2021/04/11 09:35:07;;;;;;;3.15;1.92;;;12.20;99.90;;;;;;5050436;28;20047;-50
2021/04/11 09:38:31;;;;;;;3.05;1.50;;;12.40;99.90;;;;;;5060623;28;20513;-49
2021/04/11 09:41:51;;;;;;;3.72;2.13;;;12.50;99.90;;;;;;5058255;28;20410;-50
2021/04/11 09:45:29;;;;;;;2.22;1.50;;;12.60;99.90;;;;;;5066026;28;20044;-53
2021/04/11 09:48:39;;;;;;;3.85;1.90;;;12.50;99.90;;;;;;5061959;28;20044;-46
2021/04/11 09:52:02;;;;;;;3.72;1.73;;;12.20;99.90;;;;;;5061409;28;20063;-47
2021/04/11 09:55:27;;;;;;;2.60;1.67;;;11.90;99.90;;;;;;5061667;28;20705;-48
2021/04/11 09:58:58;;;;;;;2.25;1.55;;;11.90;99.90;;;;;;5060021;28;20039;-47
2021/04/11 10:02:21;;;;;;;4.63;1.77;;;11.90;99.90;;;;;;5057166;28;20578;-50
2021/04/11 10:05:45;;;;;;;2.72;1.60;;;12.00;99.90;;;;;;5060112;28;20045;-48
2021/04/11 10:09:08;;;;;;;3.78;1.95;;;12.10;99.90;;;;;;5059391;28;20040;-50
2021/04/11 10:12:31;;;;;;;3.88;1.60;;;12.20;99.90;;;;;;5057551;28;20051;-50
2021/04/11 10:15:53;;;;;;;3.20;1.92;;;12.20;99.90;;;;;;5061634;28;20040;-49
2021/04/11 10:19:24;;;;;;;4.40;1.98;;;12.30;99.90;;;;;;5056136;28;20063;-48
2021/04/11 10:22:52;;;;;;;3.00;1.67;;;12.20;99.90;;;;;;5055032;28;20052;-50
2021/04/11 10:26:01;;;;;;;2.55;1.70;;;12.10;99.90;;;;;;5058651;28;20277;-47
2021/04/11 10:29:15;;;;;;;3.55;2.10;;;12.20;99.90;;;;;;5080866;28;20048;-48
2021/04/11 10:32:41;;;;;;;4.25;2.08;;;12.20;99.90;;;;;;5055440;28;20052;-47
2021/04/11 10:36:07;;;;;;;3.63;2.42;;;12.10;99.90;;;;;;5062546;28;20406;-48
2021/04/11 10:39:23;;;;;;;2.10;1.80;;;12.10;99.90;;;;;;5063637;28;20031;-47
2021/04/11 10:42:55;;;;;;;2.15;1.60;;;12.10;99.90;;;;;;5051803;28;20050;-48
2021/04/11 10:46:10;;;;;;;2.95;2.03;;;12.00;99.90;;;;;;5058894;28;20041;-52
2021/04/11 10:49:32;;;;;;;4.00;1.50;;;11.80;99.90;;;;;;5058084;28;20054;-49
2021/04/11 10:53:01;;;;;;;1.63;1.30;;;11.90;99.90;;;;;;5060888;28;20054;-50
2021/04/11 10:56:23;;;;;;;3.20;2.10;;;11.90;99.90;;;;;;5056397;28;20036;-47
2021/04/11 10:59:48;;;;;;;3.53;2.13;;;11.90;99.90;;;;;;5064540;28;20041;-47
2021/04/11 11:03:13;;;;;;;2.85;1.90;;;11.90;99.90;;;;;;5077367;28;20049;-50
2021/04/11 11:06:38;;;;;;;2.78;1.75;;;12.00;99.90;;;;;;5065449;28;20029;-48
2021/04/11 11:09:45;;;;;;;5.57;2.53;;;12.10;99.90;;;;;;5049802;28;20043;-51
2021/04/11 11:13:15;;;;;;;2.03;1.52;;;12.20;99.90;;;;;;5062954;28;20044;-52
2021/04/11 11:16:37;;;;;;;3.72;2.70;;;12.40;99.90;;;;;;5064299;28;20051;-49
2021/04/11 11:20:20;;;;;;;2.10;1.55;;;12.30;99.90;;;;;;5057372;28;20043;-47
2021/04/11 11:23:41;;;;;;;3.85;1.33;;;12.40;99.90;;;;;;5059988;28;20146;-47
2021/04/11 11:27:24;;;;;;;2.60;1.55;;;12.60;99.90;;;;;;5040260;28;20056;-50
2021/04/11 11:30:47;;;;;;;4.38;1.98;;;12.70;99.90;;;;;;5068503;28;20048;-47
2021/04/11 11:34:24;;;;;;;2.25;1.80;;;12.70;99.90;;;;;;5069283;28;20044;-47
2021/04/11 11:37:34;;;;;;;5.00;2.33;;;12.80;99.90;;;;;;5066828;28;20505;-50
2021/04/11 11:41:11;;;;;;;2.35;1.83;;;12.80;99.90;;;;;;5069420;28;20496;-50
2021/04/11 11:44:39;;;;;;;3.80;2.38;;;12.80;99.90;;;;;;5071106;28;20035;-47
2021/04/11 11:47:57;;;;;;;3.28;2.10;;;12.70;99.90;;;;;;5068696;28;20036;-50
2021/04/11 11:51:08;;;;;;;4.55;1.80;;;12.70;99.90;;;;;;5069760;28;20032;-47
2021/04/11 11:54:35;;;;;;;5.95;5.05;;;12.70;99.90;;;;;;5066010;28;20029;-48
2021/04/11 11:57:51;;;;;;;2.78;2.13;;;12.60;99.90;;;;;;5063547;28;20492;-47
2021/04/11 12:00:58;;;;;;;7.47;5.20;;;12.60;99.90;;;;;;5063958;28;20051;-50
2021/04/11 12:04:30;;;;;;;5.13;3.28;;;12.50;99.90;;;;;;5068276;28;20043;-51
2021/04/11 12:07:44;;;;;;;;;;;12.40;99.90;;;;;;5066056;28;20052;-47
2021/04/11 12:11:14;;;;;;;5.53;4.00;;;12.40;99.90;;;;;;5066935;28;20409;-50
2021/04/11 12:14:40;;;;;;;2.25;1.98;;;12.40;99.90;;;;;;5065974;28;20037;-49
2021/04/11 12:17:58;;;;;;;3.85;2.70;;;12.40;99.90;;;;;;5071649;28;20046;-53
2021/04/11 12:21:25;;;;;;;2.47;2.20;;;12.50;99.90;;;;;;5066483;28;20055;-50
2021/04/11 12:24:53;;;;;;;21.17;14.00;;;12.40;99.90;;;;;;5069057;28;20036;-50
2021/04/11 12:28:29;;;;;;;3.85;2.75;;;12.40;99.90;;;;;;5062067;28;20044;-55
2021/04/11 12:31:45;;;;;;;8.85;5.13;;;12.50;99.90;;;;;;5062251;28;20051;-52
2021/04/11 12:35:20;;;;;;;3.40;2.58;;;12.50;99.90;;;;;;5076119;28;20036;-50
2021/04/11 12:38:39;;;;;;;2.50;1.75;;;12.50;99.90;;;;;;5065054;28;20044;-48
2021/04/11 12:42:11;;;;;;;7.05;2.92;;;12.40;99.90;;;;;;5066853;28;20092;-50
2021/04/11 12:45:26;;;;;;;3.65;2.30;;;12.30;99.90;;;;;;5069920;28;20059;-52
2021/04/11 12:49:08;;;;;;;2.50;1.90;;;12.40;99.90;;;;;;5080131;28;20047;-53
2021/04/11 12:52:39;;;;;;;2.40;2.10;;;12.40;99.90;;;;;;5066996;28;20064;-54
2021/04/11 12:55:49;;;;;;;3.78;3.30;;;12.40;99.90;;;;;;5072097;28;20402;-53
2021/04/11 12:59:14;;;;;;;3.38;2.33;;;12.40;99.90;;;;;;5074271;28;20041;-52
2021/04/11 13:02:30;;;;;;;4.05;2.55;;;12.40;99.90;;;;;;5070998;28;20047;-51
2021/04/11 13:06:31;;;;;;;6.47;3.33;;;12.50;99.90;;;;;;5074182;28;20419;-49
2021/04/11 13:09:52;;;;;;;12.32;7.97;;;12.50;99.90;;;;;;5028515;28;20049;-55
2021/04/11 13:13:02;;;;;;;5.40;2.85;;;12.60;99.90;;;;;;5045826;28;20887;-49
2021/04/11 13:16:40;;;;;;;4.35;2.60;;;12.70;99.90;;;;;;5055186;28;20415;-49
2021/04/11 13:20:03;;;;;;;4.38;3.13;;;12.80;99.90;;;;;;5055716;28;20055;-49
2021/04/11 13:23:18;;;;;;;4.35;3.40;;;13.00;99.90;;;;;;5061412;28;20057;-49
2021/04/11 13:26:43;;;;;;;3.88;3.17;;;13.10;99.90;;;;;;5057346;28;20047;-53
2021/04/11 13:30:18;;;;;;;5.38;3.17;;;13.10;99.90;;;;;;5047217;28;20042;-54
2021/04/11 13:33:27;;;;;;;4.85;3.72;;;13.10;99.90;;;;;;5055180;28;20046;-49
2021/04/11 13:36:44;;;;;;;4.70;3.50;;;13.10;99.90;;;;;;5059594;28;20063;-49
2021/04/11 13:39:50;;;;;;;7.95;3.90;;;13.00;99.90;;;;;;5057327;28;20044;-55
2021/04/11 13:43:09;;;;;;;5.63;3.67;;;13.00;99.90;;;;;;5057705;28;20047;-47
2021/04/11 13:46:21;;;;;;;6.22;4.05;;;13.00;99.90;;;;;;5051267;28;20040;-47
2021/04/11 13:49:49;;;;;;;7.37;4.03;;;13.00;99.90;;;;;;5065478;28;20051;-49
2021/04/11 13:53:27;;;;;;;16.10;9.70;;;13.00;99.90;;;;;;5034416;28;20754;-48
2021/04/11 13:56:50;;;;;;;6.18;4.90;;;13.00;99.90;;;;;;5045112;28;20056;-49
2021/04/11 14:00:26;;;;;;;7.65;4.00;;;12.90;99.90;;;;;;5058179;28;20047;-50
2021/04/11 14:03:40;;;;;;;7.30;4.30;;;12.80;99.90;;;;;;5060780;28;20043;-52
2021/04/11 14:07:00;;;;;;;9.27;5.38;;;12.80;99.90;;;;;;5055182;28;20064;-47
2021/04/11 14:10:20;;;;;;;9.90;6.88;;;12.70;99.90;;;;;;5047975;28;20050;-50
2021/04/11 14:13:32;;;;;;;10.77;5.30;;;12.80;99.90;;;;;;5032448;28;20051;-48
2021/04/11 14:16:54;;;;;;;11.40;7.40;;;12.70;99.90;;;;;;5069257;28;20143;-50
2021/04/11 14:20:12;;;;;;;8.88;5.78;;;12.70;99.90;;;;;;5049307;28;20060;-48
2021/04/11 14:23:29;;;;;;;13.40;5.70;;;12.70;99.90;;;;;;5064081;28;20047;-47
2021/04/11 14:26:52;;;;;;;10.52;5.25;;;12.70;99.90;;;;;;5061396;28;20555;-47
2021/04/11 14:30:02;;;;;;;8.57;4.80;;;12.70;99.90;;;;;;5056682;28;20067;-50
2021/04/11 14:33:14;;;;;;;6.88;3.90;;;12.70;99.90;;;;;;5057804;28;20041;-50
2021/04/11 14:36:20;;;;;;;;;;;12.70;99.90;;;;;;5068359;28;20267;-47
2021/04/11 14:39:41;;;;;;;7.80;4.53;;;12.70;99.90;;;;;;5065743;28;19923;-54
2021/04/11 14:43:04;;;;;;;7.18;4.97;;;12.90;99.90;;;;;;5061376;28;20534;-46
2021/04/11 14:46:23;;;;;;;7.28;4.97;;;13.00;99.90;;;;;;5066282;28;20041;-47
2021/04/11 14:49:29;;;;;;;8.55;4.93;;;12.90;99.90;;;;;;5079743;28;20043;-54
2021/04/11 14:53:07;;;;;;;10.25;4.88;;;12.80;99.90;;;;;;5058197;28;20445;-51
2021/04/11 14:56:40;;;;;;;9.43;5.53;;;12.80;99.90;;;;;;5065304;28;20733;-47
2021/04/11 14:59:57;;;;;;;6.05;4.60;;;12.80;99.90;;;;;;5080942;28;21502;-53
2021/04/11 15:03:09;;;;;;;9.60;7.60;;;12.80;99.90;;;;;;5068377;28;20043;-48
2021/04/11 15:06:47;;;;;;;6.30;4.15;;;12.80;99.90;;;;;;5067080;28;20037;-54
2021/04/11 15:10:15;;;;;;;8.15;3.92;;;12.70;99.90;;;;;;5067710;28;20041;-54
2021/04/11 15:13:36;;;;;;;11.35;5.90;;;12.80;99.90;;;;;;5062814;28;20086;-46
2021/04/11 15:17:09;;;;;;;5.35;3.90;;;12.80;99.90;;;;;;5068530;28;20522;-51
2021/04/11 15:20:26;;;;;;;7.22;3.65;;;12.90;99.90;;;;;;5056625;28;20043;-53
2021/04/11 15:23:38;;;;;;;7.10;4.03;;;12.80;99.90;;;;;;5064887;28;20039;-51
2021/04/11 15:27:02;;;;;;;5.45;3.63;;;12.80;99.90;;;;;;5072688;28;20040;-50
2021/04/11 15:30:19;;;;;;;14.10;8.32;;;12.70;99.90;;;;;;5053202;28;20045;-51
2021/04/11 15:33:31;;;;;;;4.47;3.10;;;12.70;99.90;;;;;;5063259;28;20051;-47
2021/04/11 15:37:01;;;;;;;7.78;3.97;;;12.70;99.90;;;;;;5067902;28;20048;-55
2021/04/11 15:40:06;;;;;;;5.78;3.47;;;12.70;99.90;;;;;;5057717;28;20512;-53
2021/04/11 15:43:28;;;;;;;11.90;7.38;;;12.80;99.90;;;;;;5059678;28;20507;-50
2021/04/11 15:47:20;;;;;;;7.95;4.00;;;12.80;99.90;;;;;;5075708;28;20055;-52
2021/04/11 15:50:49;;;;;;;12.17;4.77;;;12.80;99.90;;;;;;5047992;28;20738;-49
2021/04/11 15:53:56;;;;;;;13.65;5.90;;;12.80;99.90;;;;;;5071545;28;20290;-50
2021/04/11 15:57:22;;;;;;;11.20;6.05;;;12.70;99.90;;;;;;5063338;28;20395;-52
2021/04/11 16:00:57;;;;;;;13.77;8.25;;;12.60;99.90;;;;;;5050872;28;20048;-49
2021/04/11 16:04:17;;;;;;;29.60;20.15;;;12.60;99.90;;;;;;5063851;28;20047;-54
2021/04/11 16:08:01;;;;;;;4.53;3.42;;;12.60;99.90;;;;;;5063693;28;20379;-54
2021/04/11 16:11:22;;;;;;;8.43;5.15;;;12.60;99.90;;;;;;5042528;28;20051;-48
2021/04/11 16:15:01;;;;;;;15.00;8.75;;;12.60;99.90;;;;;;5064504;28;20053;-50
2021/04/11 16:18:22;;;;;;;12.13;7.05;;;12.50;99.90;;;;;;5064633;28;20051;-53
2021/04/11 16:21:49;;;;;;;19.45;11.65;;;12.50;99.90;;;;;;5046746;28;20059;-50
2021/04/11 16:25:13;;;;;;;16.13;8.55;;;12.50;99.90;;;;;;5063399;28;20051;-50
2021/04/11 16:28:25;;;;;;;7.70;5.10;;;12.50;99.90;;;;;;5064680;28;20111;-48
2021/04/11 16:31:39;;;;;;;10.90;6.40;;;12.50;99.90;;;;;;5049357;28;20047;-53
2021/04/11 16:35:09;;;;;;;10.85;5.93;;;12.60;99.90;;;;;;5065256;28;20048;-48
2021/04/11 16:38:32;;;;;;;12.50;6.68;;;12.40;99.90;;;;;;5064034;28;20087;-55
2021/04/11 16:42:06;;;;;;;11.50;6.90;;;12.40;99.90;;;;;;5057175;28;20047;-55
2021/04/11 16:45:24;;;;;;;14.40;8.02;;;12.40;99.90;;;;;;5065881;28;20046;-54
2021/04/11 16:49:00;;;;;;;15.95;9.02;;;12.50;99.90;;;;;;5069343;28;20442;-52
2021/04/11 16:52:21;;;;;;;13.18;7.88;;;12.40;99.90;;;;;;5051002;28;20529;-57
2021/04/11 16:55:47;;;;;;;11.32;8.13;;;12.40;99.90;;;;;;5049800;28;20055;-51
2021/04/11 16:59:07;;;;;;;13.70;8.55;;;12.40;99.90;;;;;;5068511;28;20607;-54
2021/04/11 17:02:19;;;;;;;18.08;8.40;;;12.50;99.90;;;;;;5045874;28;20039;-51
2021/04/11 17:05:24;;;;;;;;;;;12.40;99.90;;;;;;5060725;28;20054;-47
2021/04/11 17:08:44;;;;;;;19.73;9.63;;;12.40;99.90;;;;;;5070684;28;19919;-54
2021/04/11 17:11:56;;;;;;;21.38;8.77;;;12.40;99.90;;;;;;5047842;28;20535;-53
2021/04/11 17:15:10;;;;;;;19.45;9.65;;;12.40;99.90;;;;;;5068652;28;20035;-53